createdAt,value
2023-04-20T00:10:49.897Z,85.38
2023-04-20T00:31:19.038Z,85.02
2023-04-20T00:51:53.574Z,84.19
2023-04-20T01:11:41.988Z,84.95
2023-04-20T01:24:50.137Z,85.53
2023-04-20T01:44:40.405Z,85.94
2023-04-20T02:04:29.111Z,86.39
2023-04-20T02:24:19.309Z,86.39
2023-04-20T02:44:28.408Z,86.95
2023-04-20T03:04:49.194Z,86.68
2023-04-20T03:24:57.980Z,86.05
2023-04-20T03:37:49.804Z,86.28
2023-04-20T03:58:32.838Z,86.92
2023-04-20T04:05:51.758Z,87.31
2023-04-20T04:12:15.612Z,87.23
2023-04-20T04:32:33.391Z,86.75
2023-04-20T04:54:19.692Z,87.50
2023-04-20T05:14:34.076Z,88.17
2023-04-20T05:34:12.258Z,87.56
2023-04-20T05:54:14.150Z,87.04
2023-04-20T06:07:44.987Z,87.43
2023-04-20T06:27:34.859Z,88.04
2023-04-20T06:47:23.780Z,88.24
2023-04-20T06:53:19.334Z,87.83
2023-04-20T07:13:17.640Z,87.80
2023-04-20T07:32:49.394Z,87.43
2023-04-20T07:52:40.464Z,86.81
2023-04-20T08:12:34.062Z,86.11
2023-04-20T08:32:23.722Z,84.71
2023-04-20T08:52:14.647Z,84.96
2023-04-20T08:59:34.109Z,83.90
2023-04-20T09:19:34.938Z,84.18
2023-04-20T09:39:25.324Z,83.79
2023-04-20T09:59:54.770Z,84.59
2023-04-20T10:19:59.026Z,84.28
2023-04-20T10:40:30.888Z,83.43
2023-04-20T11:00:42.989Z,81.38
2023-04-20T11:07:47.508Z,80.67
2023-04-20T11:14:48.988Z,78.13
2023-04-20T11:54:49.720Z,75.64
2023-04-20T12:14:32.076Z,74.93
2023-04-20T12:34:22.759Z,72.35
2023-04-20T13:08:52.812Z,69.18
2023-04-20T13:22:03.117Z,69.60
2023-04-20T13:41:53.311Z,67.17
2023-04-20T14:01:43.105Z,66.31
2023-04-20T14:21:08.025Z,66.90
2023-04-20T14:27:54.997Z,63.82
2023-04-20T14:41:40.066Z,64.89
2023-04-20T15:01:58.668Z,65.97
2023-04-20T15:23:15.910Z,64.30
2023-04-20T15:30:18.169Z,65.08
2023-04-20T15:50:35.492Z,65.92
2023-04-20T16:10:03.972Z,66.84
2023-04-20T16:30:32.444Z,67.07
2023-04-20T16:57:10.849Z,67.30
2023-04-20T17:10:18.261Z,67.89
2023-04-20T17:37:19.720Z,69.25
2023-04-20T17:57:39.881Z,70.16
2023-04-20T18:10:41.140Z,70.21
2023-04-20T18:17:28.106Z,70.33
2023-04-20T18:23:30.412Z,70.34
2023-04-20T18:29:08.880Z,70.58
2023-04-20T18:56:26.454Z,71.62
2023-04-20T19:16:20.008Z,72.34
2023-04-20T19:35:55.904Z,72.43
2023-04-20T19:42:16.876Z,72.40
2023-04-20T20:02:09.543Z,73.19
2023-04-20T20:14:37.794Z,73.52
2023-04-20T20:20:56.632Z,73.99
2023-04-20T20:41:06.584Z,74.53
2023-04-20T21:01:26.559Z,74.68
2023-04-20T21:27:57.331Z,75.35
2023-04-20T21:47:47.038Z,75.86
2023-04-20T22:07:17.275Z,76.13
2023-04-20T22:27:20.825Z,76.32
2023-04-20T22:40:29.628Z,76.25
2023-04-20T22:54:28.741Z,77.25
2023-04-20T23:14:36.337Z,77.82
2023-04-20T23:34:52.995Z,77.49
2023-04-20T23:55:21.919Z,78.02
